Flight Track Log - Related Links

Times and Time Zones

All times are in EDT time to prevent confusion due to time zone crossing. See the TAM3840 flight status page for this flight to view local times or setup timezone preferences in your user account.

Time Position Orientation Groundspeed Altitude Reporting Facility
EDT Latitude Longitude Course Direction KTS MPH feet Rate Location/Type
Sun 11:11:45 AM -5.0560 -42.8240 180° South 105 121  Level FlightAware ADS-B
Sun 11:12:08 AM -5.0770 -42.8220 175° South 150 173 1,000 2,000 Climbing FlightAware ADS-B
Sun 11:12:30 AM -5.0950 -42.8200 174° South 175 201 1,500 1,588 Climbing FlightAware ADS-B
Sun 11:12:42 AM -5.1050 -42.8180 169° South 185 213 1,900 1,500 Climbing FlightAware ADS-B
Sun 11:12:50 AM -5.1110 -42.8150 154° Southeast 195 224 2,000 750 Climbing FlightAware ADS-B
Sun 11:12:58 AM -5.1160 -42.8100 135° Southeast 204 235 2,100 1,000 Climbing FlightAware ADS-B
Sun 11:13:02 AM -5.1180 -42.8060 117° Southeast 209 241 2,200 923 Climbing FlightAware ADS-B
Sun 11:13:11 AM -5.1200 -42.8010 112° Southeast 221 254 2,300 1,091 Climbing FlightAware ADS-B
Sun 11:13:13 AM -5.1210 -42.7960 101° East 229 264 2,400 2,889 Climbing FlightAware ADS-B
Sun 11:13:38 AM -5.1090 -42.7700 65° Northeast 247 284 3,600 3,000 Climbing FlightAware ADS-B
Sun 11:13:47 AM -5.1010 -42.7650 32° Northeast 242 278 4,100 3,462 Climbing FlightAware ADS-B
Sun 11:14:04 AM -5.0820 -42.7590 17° North 246 283 5,100 3,231 Climbing FlightAware ADS-B
Sun 11:14:26 AM -5.0580 -42.7510 18° North 252 290 6,200 3,000 Climbing FlightAware ADS-B
Sun 11:14:50 AM -5.0320 -42.7390 25° Northeast 253 291 7,400 3,000 Climbing FlightAware ADS-B
Sun 11:14:54 AM -5.0290 -42.7360 45° Northeast 250 288 7,600 3,000 Climbing FlightAware ADS-B
Sun 11:15:02 AM -5.0240 -42.7280 58° Northeast 248 285 8,000 1,929 Climbing FlightAware ADS-B
Sun 11:15:22 AM -5.0140 -42.7060 65° Northeast 270 311 8,500 1,857 Climbing FlightAware ADS-B
Sun 11:15:44 AM -5.0030 -42.6790 68° East 288 331 9,300 2,400 Climbing FlightAware ADS-B
Sun 11:15:57 AM -4.9960 -42.6640 65° Northeast 288 331 9,900 2,000 Climbing FlightAware ADS-B
Sun 11:16:32 AM -4.9760 -42.6180 66° East 322 371 10,900 1,826 Climbing FlightAware ADS-B
Sun 11:17:06 AM -4.9550 -42.5690 67° East 345 397 12,000 2,743 Climbing FlightAware ADS-B
Sun 11:17:42 AM -4.9330 -42.5180 67° East 331 381 14,100 2,667 Climbing FlightAware ADS-B
Sun 11:18:18 AM -4.9100 -42.4650 66° East 349 402 15,200 1,750 Climbing FlightAware ADS-B
Sun 11:18:54 AM -4.8860 -42.4100 66° East 365 420 16,200 1,629 Climbing FlightAware ADS-B
Sun 11:19:28 AM -4.8630 -42.3570 66° East 379 436 17,100 2,057 Climbing FlightAware ADS-B
Sun 11:20:04 AM -4.8370 -42.2980 66° East 378 435 18,600 2,167 Climbing FlightAware ADS-B
Sun 11:20:40 AM -4.8130 -42.2410 67° East 385 443 19,700 1,765 Climbing FlightAware ADS-B
Sun 11:21:12 AM -4.7890 -42.1870 66° East 391 450 20,600 1,765 Climbing FlightAware ADS-B
Sun 11:21:48 AM -4.7630 -42.1270 67° East 397 457 21,700 1,397 Climbing FlightAware ADS-B
Sun 11:22:25 AM -4.7360 -42.0640 67° East 413 475 22,300 1,457 Climbing FlightAware ADS-B
Sun 11:22:58 AM -4.7100 -42.0040 67° East 412 474 23,400 1,913 Climbing FlightAware ADS-B
Sun 11:23:34 AM -4.6830 -41.9430 66° East 410 472 24,500 1,543 Climbing FlightAware ADS-B
Sun 11:24:08 AM -4.6570 -41.8820 67° East 417 480 25,200 1,286 Climbing FlightAware ADS-B
Sun 11:24:44 AM -4.6310 -41.8210 67° East 419 482 26,000 1,183 Climbing FlightAware ADS-B
Sun 11:25:19 AM -4.6030 -41.7580 66° East 428 493 26,600 1,099 Climbing FlightAware ADS-B
Sun 11:25:55 AM -4.5740 -41.6900 67° East 434 499 27,300 930 Climbing FlightAware ADS-B
Sun 11:26:30 AM -4.5440 -41.6230 66° East 447 514 27,700 1,043 Climbing FlightAware ADS-B
Sun 11:27:04 AM -4.5170 -41.5600 67° East 448 516 28,500 1,371 Climbing FlightAware ADS-B
Sun 11:27:40 AM -4.4860 -41.4900 66° East 450 518 29,300 1,500 Climbing FlightAware ADS-B
Sun 11:28:12 AM -4.4600 -41.4300 67° East 443 510 30,200 1,652 Climbing FlightAware ADS-B
Sun 11:28:49 AM -4.4300 -41.3610 66° East 439 505 31,200 1,543 Climbing FlightAware ADS-B
Sun 11:29:22 AM -4.4040 -41.3000 67° East 438 504 32,000 1,352 Climbing FlightAware ADS-B
Sun 11:30:00 AM -4.3720 -41.2280 66° East 437 503 32,800 857 Climbing FlightAware ADS-B
Sun 11:30:32 AM -4.3460 -41.1680 67° East 432 497 33,000 176 Climbing FlightAware ADS-B
Sun 11:31:08 AM -4.3170 -41.1020 66° East 433 498 33,000  Level FlightAware ADS-B
Sun 11:31:42 AM -4.2900 -41.0390 67° East 433 498 33,000  Level FlightAware ADS-B
Sun 11:32:20 AM -4.2620 -40.9750 66° East 433 498 33,000  Level FlightAware ADS-B
Sun 11:32:55 AM -4.2460 -40.9380 67° East 433 498 33,000  Level FlightAware ADS-B
Sun 11:33:32 AM -4.2030 -40.8400 66° East 433 498 33,000  Level FlightAware ADS-B
Sun 11:34:01 AM -4.1800 -40.7870 66° East 433 498 33,000  Level FlightAware ADS-B
Sun 11:34:53 AM -4.1370 -40.6890 66° East 434 499 33,000  Level FlightAware ADS-B
Sun 11:35:29 AM -4.1080 -40.6210 67° East 435 501 33,000  Level FlightAware ADS-B
Sun 11:36:04 AM -4.0800 -40.5580 66° East 435 501 33,000  Level FlightAware ADS-B
Sun 11:36:41 AM -4.0500 -40.4880 67° East 435 501 33,000  Level FlightAware ADS-B
Sun 11:37:13 AM -4.0240 -40.4290 66° East 435 501 33,000  Level FlightAware ADS-B
Sun 11:37:49 AM -3.9950 -40.3640 66° East 435 501 33,000 -250 Level FlightAware ADS-B
Sun 11:38:25 AM -3.9670 -40.2980 67° East 434 499 32,700 -1,083 Descending FlightAware ADS-B
Sun 11:39:01 AM -3.9370 -40.2310 66° East 430 495 31,700 -1,853 Descending FlightAware ADS-B
Sun 11:39:33 AM -3.9120 -40.1720 67° East 424 488 30,600 -2,735 Descending FlightAware ADS-B
Sun 11:40:09 AM -3.8900 -40.1070 71° East 434 499 28,600 -4,029 Descending FlightAware ADS-B
Sun 11:40:43 AM -3.8790 -40.0360 81° East 454 522 25,900 -3,686 Descending FlightAware ADS-B
Sun 11:41:19 AM -3.8680 -39.9660 81° East 443 510 24,300 -2,583 Descending FlightAware ADS-B
Sun 11:41:55 AM -3.8570 -39.8900 82° East 426 490 22,800 -2,417 Descending FlightAware ADS-B
Sun 11:42:31 AM -3.8460 -39.8220 81° East 410 472 21,400 -2,206 Descending FlightAware ADS-B
Sun 11:43:03 AM -3.8370 -39.7620 81° East 404 465 20,300 -2,143 Descending FlightAware ADS-B
Sun 11:43:41 AM -3.8260 -39.6920 81° East 396 456 18,900 -2,167 Descending FlightAware ADS-B
Sun 11:44:15 AM -3.8170 -39.6320 81° East 391 450 17,700 -2,143 Descending FlightAware ADS-B
Sun 11:44:51 AM -3.8070 -39.5670 81° East 384 442 16,400 -2,118 Descending FlightAware ADS-B
Sun 11:45:23 AM -3.7990 -39.5130 82° East 376 433 15,300 -2,029 Descending FlightAware ADS-B
Sun 11:45:59 AM -3.7900 -39.4510 82° East 365 420 14,100 -1,917 Descending FlightAware ADS-B
Sun 11:46:35 AM -3.7810 -39.3910 81° East 357 411 13,000 -1,917 Descending FlightAware ADS-B
Sun 11:47:11 AM -3.7720 -39.3340 81° East 351 404 11,800 -1,800 Descending FlightAware ADS-B
Sun 11:47:45 AM -3.7630 -39.2800 81° East 339 390 10,900 -1,182 Descending FlightAware ADS-B
Sun 11:48:17 AM -3.7560 -39.2320 82° East 317 365 10,500 -667 Descending FlightAware ADS-B
Sun 11:48:57 AM -3.7470 -39.1750 81° East 291 335 10,100 -800 Descending FlightAware ADS-B
Sun 11:49:17 AM -3.7440 -39.1500 83° East 283 326 9,700 -1,200 Descending FlightAware ADS-B
Sun 11:49:37 AM -3.7400 -39.1260 81° East 284 327 9,300 -1,500 Descending FlightAware ADS-B
Sun 11:49:53 AM -3.7370 -39.1030 83° East 281 323 8,800 -1,667 Descending FlightAware ADS-B
Sun 11:50:13 AM -3.7330 -39.0780 81° East 277 319 8,300 -1,500 Descending FlightAware ADS-B
Sun 11:50:33 AM -3.7290 -39.0520 81° East 272 313 7,800 -1,412 Descending FlightAware ADS-B
Sun 11:50:47 AM -3.7260 -39.0350 80° East 269 310 7,500 -1,333 Descending FlightAware ADS-B
Sun 11:51:09 AM -3.7220 -39.0090 81° East 266 306 7,000 -1,463 Descending FlightAware ADS-B
Sun 11:51:28 AM -3.7190 -38.9860 83° East 262 302 6,500 -1,421 Descending FlightAware ADS-B
Sun 11:51:47 AM -3.7150 -38.9620 81° East 260 299 6,100 -1,317 Descending FlightAware ADS-B
Sun 11:52:09 AM -3.7110 -38.9360 81° East 257 296 5,600 -1,043 Descending FlightAware ADS-B
Sun 11:52:33 AM -3.7070 -38.9080 82° East 261 300 5,300 -682 Descending FlightAware ADS-B
Sun 11:52:53 AM -3.7030 -38.8850 80° East 251 289 5,100 -450 Descending FlightAware ADS-B
Sun 11:53:13 AM -3.7000 -38.8630 82° East 230 265 5,000 -143 Descending FlightAware ADS-B
Sun 11:53:35 AM -3.6970 -38.8400 83° East 209 241 5,000 -136 Level FlightAware ADS-B
Sun 11:53:57 AM -3.7000 -38.8200 99° East 201 231 4,900 -474 Descending FlightAware ADS-B
Sun 11:54:13 AM -3.7030 -38.8060 102° East 196 226 4,700 -857 Descending FlightAware ADS-B
Sun 11:54:39 AM -3.7090 -38.7840 105° East 183 211 4,300 -766 Descending FlightAware ADS-B
Sun 11:55:00 AM -3.7130 -38.7680 104° East 173 199 4,100 -462 Descending FlightAware ADS-B
Sun 11:55:18 AM -3.7170 -38.7540 106° East 171 197 4,000 -439 Descending FlightAware ADS-B
Sun 11:55:41 AM -3.7220 -38.7360 106° East 169 194 3,800 -558 Descending FlightAware ADS-B
Sun 11:56:01 AM -3.7260 -38.7210 105° East 169 194 3,600 -857 Descending FlightAware ADS-B
Sun 11:56:23 AM -3.7300 -38.7040 103° East 175 201 3,200 -1,000 Descending FlightAware ADS-B
Sun 11:56:43 AM -3.7350 -38.6880 107° East 171 197 2,900 -857 Descending FlightAware ADS-B
Sun 11:57:05 AM -3.7390 -38.6720 104° East 165 190 2,600 -714 Descending FlightAware ADS-B
Sun 11:57:25 AM -3.7430 -38.6570 105° East 150 173 2,400 -750 Descending FlightAware ADS-B
Sun 11:57:45 AM -3.7460 -38.6450 104° East 138 159 2,100 -818 Descending FlightAware ADS-B
Sun 11:58:09 AM -3.7500 -38.6310 106° East 127 146 1,800 -682 Descending FlightAware ADS-B
Sun 11:58:29 AM -3.7530 -38.6200 105° East 126 145 1,600 -632 Descending FlightAware ADS-B
Sun 11:58:47 AM -3.7550 -38.6100 101° East 128 147 1,400 -600 Descending FlightAware ADS-B
Sun 11:59:09 AM -3.7590 -38.5970 107° East 127 146 1,200 -652 Descending FlightAware ADS-B
Sun 11:59:33 AM -3.7630 -38.5830 106° East 128 147 900 -682 Descending FlightAware ADS-B
Sun 11:59:53 AM -3.7660 -38.5720 105° East 124 143 700 -600 Descending FlightAware ADS-B
Sun 12:00:13 PM -3.7690 -38.5610 105° East 122 140 500 -600 Descending FlightAware ADS-B
Sun 12:00:33 PM -3.7720 -38.5500 105° East 124 143 300 -600 Descending FlightAware ADS-B
Sun 12:00:58 PM -3.7750 -38.5360 102° East 105 121 -720 Descending FlightAware ADS-B

Login

Don't have an account? Register now (free) for customized features, flight alerts, and more!